sensor_id;sensor_type;location;lat;lon;timestamp;pressure;altitude;pressure_sealevel;temperature;humidity
55373;BME280;70018;47.838;16.490;2023-05-25T00:01:37;99625.91;;;6.95;79.72
55373;BME280;70018;47.838;16.490;2023-05-25T00:04:04;99623.53;;;6.94;79.67
55373;BME280;70018;47.838;16.490;2023-05-25T00:06:31;99628.25;;;6.93;80.49
55373;BME280;70018;47.838;16.490;2023-05-25T00:08:58;99625.84;;;6.92;80.30
55373;BME280;70018;47.838;16.490;2023-05-25T00:11:25;99631.22;;;6.85;80.29
55373;BME280;70018;47.838;16.490;2023-05-25T00:13:52;99634.41;;;6.87;80.54
55373;BME280;70018;47.838;16.490;2023-05-25T00:16:19;99636.41;;;6.86;80.73
55373;BME280;70018;47.838;16.490;2023-05-25T00:18:46;99637.63;;;6.89;79.80
55373;BME280;70018;47.838;16.490;2023-05-25T00:21:14;99636.03;;;6.88;80.15
55373;BME280;70018;47.838;16.490;2023-05-25T00:23:41;99627.31;;;6.86;80.40
55373;BME280;70018;47.838;16.490;2023-05-25T00:26:08;99634.41;;;6.87;80.14
55373;BME280;70018;47.838;16.490;2023-05-25T00:28:35;99633.19;;;6.84;80.56
55373;BME280;70018;47.838;16.490;2023-05-25T00:31:02;99629.66;;;6.84;80.19
55373;BME280;70018;47.838;16.490;2023-05-25T00:33:28;99626.13;;;6.87;79.54
55373;BME280;70018;47.838;16.490;2023-05-25T00:35:55;99634.41;;;6.87;79.57
55373;BME280;70018;47.838;16.490;2023-05-25T00:38:22;99626.91;;;6.84;79.70
55373;BME280;70018;47.838;16.490;2023-05-25T00:40:54;99626.44;;;6.82;79.76
55373;BME280;70018;47.838;16.490;2023-05-25T00:43:20;99621.66;;;6.79;80.31
55373;BME280;70018;47.838;16.490;2023-05-25T00:45:49;99635.81;;;6.77;80.82
55373;BME280;70018;47.838;16.490;2023-05-25T00:48:17;99631.09;;;6.78;79.58
55373;BME280;70018;47.838;16.490;2023-05-25T00:50:44;99635.38;;;6.75;80.14
55373;BME280;70018;47.838;16.490;2023-05-25T00:53:12;99627.91;;;6.76;80.28
55373;BME280;70018;47.838;16.490;2023-05-25T00:55:55;99634.94;;;6.73;79.90
55373;BME280;70018;47.838;16.490;2023-05-25T00:58:26;99640.38;;;6.70;79.66
55373;BME280;70018;47.838;16.490;2023-05-25T01:00:56;99642.00;;;6.71;79.97
55373;BME280;70018;47.838;16.490;2023-05-25T01:03:25;99635.34;;;6.72;79.92
55373;BME280;70018;47.838;16.490;2023-05-25T01:05:56;99656.06;;;6.65;79.68
55373;BME280;70018;47.838;16.490;2023-05-25T01:08:24;99652.88;;;6.63;79.71
55373;BME280;70018;47.838;16.490;2023-05-25T01:10:52;99670.94;;;6.61;79.76
55373;BME280;70018;47.838;16.490;2023-05-25T01:13:20;99666.50;;;6.56;80.13
55373;BME280;70018;47.838;16.490;2023-05-25T01:15:47;99674.78;;;6.56;80.41
55373;BME280;70018;47.838;16.490;2023-05-25T01:18:16;99671.56;;;6.54;79.66
55373;BME280;70018;47.838;16.490;2023-05-25T01:23:25;99673.97;;;6.56;80.25
55373;BME280;70018;47.838;16.490;2023-05-25T01:25:55;99669.09;;;6.49;80.27
55373;BME280;70018;47.838;16.490;2023-05-25T01:28:28;99675.50;;;6.53;79.42
55373;BME280;70018;47.838;16.490;2023-05-25T01:30:56;99672.31;;;6.51;79.71
55373;BME280;70018;47.838;16.490;2023-05-25T01:33:23;99685.22;;;6.47;79.92
55373;BME280;70018;47.838;16.490;2023-05-25T01:35:51;99680.13;;;6.49;80.23
55373;BME280;70018;47.838;16.490;2023-05-25T01:38:18;99681.38;;;6.52;79.27
55373;BME280;70018;47.838;16.490;2023-05-25T01:40:45;99683.69;;;6.50;79.62
55373;BME280;70018;47.838;16.490;2023-05-25T01:43:11;99675.41;;;6.50;79.66
55373;BME280;70018;47.838;16.490;2023-05-25T01:45:38;99693.56;;;6.51;79.71
55373;BME280;70018;47.838;16.490;2023-05-25T01:48:13;99671.00;;;6.45;79.43
55373;BME280;70018;47.838;16.490;2023-05-25T01:50:55;99682.03;;;6.45;79.74
55373;BME280;70018;47.838;16.490;2023-05-25T01:53:34;99665.03;;;6.43;80.11
55373;BME280;70018;47.838;16.490;2023-05-25T01:56:05;99669.66;;;6.39;80.30
55373;BME280;70018;47.838;16.490;2023-05-25T01:58:44;99686.06;;;6.32;79.58
55373;BME280;70018;47.838;16.490;2023-05-25T02:01:13;99689.25;;;6.34;80.26
55373;BME280;70018;47.838;16.490;2023-05-25T02:03:41;99696.38;;;6.35;80.05
55373;BME280;70018;47.838;16.490;2023-05-25T02:06:08;99677.50;;;6.37;79.39
55373;BME280;70018;47.838;16.490;2023-05-25T02:08:35;99689.25;;;6.34;79.28
55373;BME280;70018;47.838;16.490;2023-05-25T02:11:01;99695.41;;;6.28;79.74
55373;BME280;70018;47.838;16.490;2023-05-25T02:13:28;99696.13;;;6.25;79.83
55373;BME280;70018;47.838;16.490;2023-05-25T02:15:55;99695.78;;;6.26;79.41
55373;BME280;70018;47.838;16.490;2023-05-25T02:18:22;99710.28;;;6.23;79.71
55373;BME280;70018;47.838;16.490;2023-05-25T02:20:49;99703.31;;;6.29;78.85
55373;BME280;70018;47.838;16.490;2023-05-25T02:23:15;99705.34;;;6.32;78.79
55373;BME280;70018;47.838;16.490;2023-05-25T02:25:44;99713.56;;;6.29;78.84
55373;BME280;70018;47.838;16.490;2023-05-25T02:28:13;99710.56;;;6.18;79.53
55373;BME280;70018;47.838;16.490;2023-05-25T02:30:39;99720.44;;;6.19;79.44
55373;BME280;70018;47.838;16.490;2023-05-25T02:33:06;99731.19;;;6.09;80.01
55373;BME280;70018;47.838;16.490;2023-05-25T02:35:32;99732.88;;;6.13;79.40
55373;BME280;70018;47.838;16.490;2023-05-25T02:37:59;99730.50;;;6.12;80.53
55373;BME280;70018;47.838;16.490;2023-05-25T02:40:26;99721.69;;;6.06;80.48
55373;BME280;70018;47.838;16.490;2023-05-25T02:42:52;99727.91;;;6.03;79.85
55373;BME280;70018;47.838;16.490;2023-05-25T02:45:19;99730.06;;;5.94;80.51
55373;BME280;70018;47.838;16.490;2023-05-25T02:47:45;99736.34;;;5.94;80.27
55373;BME280;70018;47.838;16.490;2023-05-25T02:50:12;99738.66;;;5.92;80.39
55373;BME280;70018;47.838;16.490;2023-05-25T02:52:38;99737.53;;;5.93;80.35
55373;BME280;70018;47.838;16.490;2023-05-25T02:55:06;99739.31;;;5.86;80.83
55373;BME280;70018;47.838;16.490;2023-05-25T02:57:35;99747.38;;;5.79;80.55
55373;BME280;70018;47.838;16.490;2023-05-25T03:00:06;99741.44;;;5.77;80.89
55373;BME280;70018;47.838;16.490;2023-05-25T03:02:33;99749.69;;;5.77;80.80
55373;BME280;70018;47.838;16.490;2023-05-25T03:05:00;99751.38;;;5.66;80.97
55373;BME280;70018;47.838;16.490;2023-05-25T03:07:30;99746.56;;;5.63;81.36
55373;BME280;70018;47.838;16.490;2023-05-25T03:09:57;99744.63;;;5.63;81.59
55373;BME280;70018;47.838;16.490;2023-05-25T03:12:24;99737.84;;;5.61;81.22
55373;BME280;70018;47.838;16.490;2023-05-25T03:14:51;99736.88;;;5.53;81.97
55373;BME280;70018;47.838;16.490;2023-05-25T03:17:18;99741.56;;;5.53;82.14
55373;BME280;70018;47.838;16.490;2023-05-25T03:19:44;99742.94;;;5.59;81.62
55373;BME280;70018;47.838;16.490;2023-05-25T03:22:11;99736.06;;;5.53;82.03
55373;BME280;70018;47.838;16.490;2023-05-25T03:24:38;99737.69;;;5.54;82.26
55373;BME280;70018;47.838;16.490;2023-05-25T03:27:07;99737.56;;;5.50;82.37
55373;BME280;70018;47.838;16.490;2023-05-25T03:29:34;99745.13;;;5.53;82.36
55373;BME280;70018;47.838;16.490;2023-05-25T03:32:01;99746.00;;;5.57;82.74
55373;BME280;70018;47.838;16.490;2023-05-25T03:34:28;99748.44;;;5.59;82.68
55373;BME280;70018;47.838;16.490;2023-05-25T03:36:54;99748.88;;;5.61;82.38
55373;BME280;70018;47.838;16.490;2023-05-25T03:39:21;99747.38;;;5.63;82.23
55373;BME280;70018;47.838;16.490;2023-05-25T03:41:48;99753.75;;;5.67;82.31
55373;BME280;70018;47.838;16.490;2023-05-25T03:44:14;99752.25;;;5.70;82.07
55373;BME280;70018;47.838;16.490;2023-05-25T03:46:41;99759.09;;;5.76;81.78
55373;BME280;70018;47.838;16.490;2023-05-25T03:49:08;99764.34;;;5.81;81.73
55373;BME280;70018;47.838;16.490;2023-05-25T03:51:40;99757.50;;;5.90;81.99
55373;BME280;70018;47.838;16.490;2023-05-25T03:54:06;99765.41;;;5.92;82.22
55373;BME280;70018;47.838;16.490;2023-05-25T03:56:33;99754.38;;;5.92;82.22
55373;BME280;70018;47.838;16.490;2023-05-25T03:58:59;99766.88;;;6.02;82.02
55373;BME280;70018;47.838;16.490;2023-05-25T04:01:26;99754.50;;;6.11;81.97
55373;BME280;70018;47.838;16.490;2023-05-25T04:03:55;99763.19;;;6.13;81.48
55373;BME280;70018;47.838;16.490;2023-05-25T04:06:22;99762.22;;;6.21;82.09
55373;BME280;70018;47.838;16.490;2023-05-25T04:08:51;99765.94;;;6.29;81.49
55373;BME280;70018;47.838;16.490;2023-05-25T04:11:18;99763.69;;;6.34;81.48
55373;BME280;70018;47.838;16.490;2023-05-25T04:13:45;99762.28;;;6.40;81.45
55373;BME280;70018;47.838;16.490;2023-05-25T04:16:12;99772.84;;;6.54;80.37
55373;BME280;70018;47.838;16.490;2023-05-25T04:18:38;99773.44;;;6.63;80.71
55373;BME280;70018;47.838;16.490;2023-05-25T04:21:05;99771.25;;;6.69;80.74
55373;BME280;70018;47.838;16.490;2023-05-25T04:23:31;99761.16;;;6.76;79.83
55373;BME280;70018;47.838;16.490;2023-05-25T04:25:59;99763.25;;;6.83;80.62
55373;BME280;70018;47.838;16.490;2023-05-25T04:28:26;99767.78;;;6.91;79.62
55373;BME280;70018;47.838;16.490;2023-05-25T04:30:53;99775.09;;;7.02;79.59
55373;BME280;70018;47.838;16.490;2023-05-25T04:33:23;99768.22;;;7.12;78.86
55373;BME280;70018;47.838;16.490;2023-05-25T04:35:50;99770.75;;;7.20;79.24
55373;BME280;70018;47.838;16.490;2023-05-25T04:38:16;99765.47;;;7.31;78.68
55373;BME280;70018;47.838;16.490;2023-05-25T04:40:43;99757.22;;;7.35;78.45
55373;BME280;70018;47.838;16.490;2023-05-25T04:43:11;99756.28;;;7.46;77.78
55373;BME280;70018;47.838;16.490;2023-05-25T04:45:39;99774.53;;;7.51;77.91
55373;BME280;70018;47.838;16.490;2023-05-25T04:48:05;99772.41;;;7.63;77.46
55373;BME280;70018;47.838;16.490;2023-05-25T04:50:32;99781.22;;;7.72;77.39
55373;BME280;70018;47.838;16.490;2023-05-25T04:52:59;99778.28;;;7.84;77.20
55373;BME280;70018;47.838;16.490;2023-05-25T04:55:25;99780.09;;;7.96;77.29
55373;BME280;70018;47.838;16.490;2023-05-25T04:57:52;99783.84;;;8.07;77.42
55373;BME280;70018;47.838;16.490;2023-05-25T05:00:20;99775.75;;;8.18;76.59
55373;BME280;70018;47.838;16.490;2023-05-25T05:02:47;99795.16;;;8.21;75.99
55373;BME280;70018;47.838;16.490;2023-05-25T05:05:14;99783.00;;;8.26;76.34
55373;BME280;70018;47.838;16.490;2023-05-25T05:07:41;99779.97;;;8.34;75.57
55373;BME280;70018;47.838;16.490;2023-05-25T05:10:08;99796.03;;;8.51;75.31
55373;BME280;70018;47.838;16.490;2023-05-25T05:12:35;99797.03;;;8.66;75.17
55373;BME280;70018;47.838;16.490;2023-05-25T05:15:02;99791.63;;;8.73;75.35
55373;BME280;70018;47.838;16.490;2023-05-25T05:17:29;99790.44;;;8.74;75.06
55373;BME280;70018;47.838;16.490;2023-05-25T05:19:56;99794.97;;;8.86;74.37
55373;BME280;70018;47.838;16.490;2023-05-25T05:22:23;99785.63;;;8.97;74.01
55373;BME280;70018;47.838;16.490;2023-05-25T05:24:49;99784.97;;;9.07;73.73
55373;BME280;70018;47.838;16.490;2023-05-25T05:27:16;99784.56;;;9.05;73.36
55373;BME280;70018;47.838;16.490;2023-05-25T05:29:43;99787.50;;;9.19;73.25
55373;BME280;70018;47.838;16.490;2023-05-25T05:32:09;99801.13;;;9.32;72.69
55373;BME280;70018;47.838;16.490;2023-05-25T05:34:36;99788.97;;;9.40;72.38
55373;BME280;70018;47.838;16.490;2023-05-25T05:37:03;99795.47;;;9.54;72.07
55373;BME280;70018;47.838;16.490;2023-05-25T05:39:30;99797.78;;;9.49;71.22
55373;BME280;70018;47.838;16.490;2023-05-25T05:41:56;99794.00;;;9.64;71.52
55373;BME280;70018;47.838;16.490;2023-05-25T05:44:23;99806.19;;;9.93;71.39
55373;BME280;70018;47.838;16.490;2023-05-25T05:46:55;99806.13;;;9.89;70.69
55373;BME280;70018;47.838;16.490;2023-05-25T05:49:30;99812.06;;;9.88;70.31
55373;BME280;70018;47.838;16.490;2023-05-25T05:51:57;99816.00;;;9.83;70.04
55373;BME280;70018;47.838;16.490;2023-05-25T05:54:24;99824.91;;;10.03;70.10
55373;BME280;70018;47.838;16.490;2023-05-25T05:56:53;99826.38;;;10.33;69.45
55373;BME280;70018;47.838;16.490;2023-05-25T05:59:20;99825.84;;;10.17;69.45
55373;BME280;70018;47.838;16.490;2023-05-25T06:01:47;99836.03;;;10.06;68.92
55373;BME280;70018;47.838;16.490;2023-05-25T06:04:14;99836.19;;;10.20;68.65
55373;BME280;70018;47.838;16.490;2023-05-25T06:06:41;99837.81;;;10.28;67.59
55373;BME280;70018;47.838;16.490;2023-05-25T06:09:10;99840.34;;;10.44;67.53
55373;BME280;70018;47.838;16.490;2023-05-25T06:11:38;99848.22;;;10.38;67.03
55373;BME280;70018;47.838;16.490;2023-05-25T06:14:05;99843.38;;;10.28;66.06
55373;BME280;70018;47.838;16.490;2023-05-25T06:16:32;99846.69;;;10.44;66.29
55373;BME280;70018;47.838;16.490;2023-05-25T06:18:59;99851.25;;;10.67;65.42
55373;BME280;70018;47.838;16.490;2023-05-25T06:21:25;99859.94;;;10.62;64.93
55373;BME280;70018;47.838;16.490;2023-05-25T06:23:52;99848.44;;;10.60;65.12
55373;BME280;70018;47.838;16.490;2023-05-25T06:26:19;99842.03;;;10.52;63.88
55373;BME280;70018;47.838;16.490;2023-05-25T06:28:45;99847.22;;;10.61;64.89
55373;BME280;70018;47.838;16.490;2023-05-25T06:31:14;99847.28;;;10.64;64.25
55373;BME280;70018;47.838;16.490;2023-05-25T06:33:41;99846.41;;;11.07;64.28
55373;BME280;70018;47.838;16.490;2023-05-25T06:36:07;99857.66;;;11.32;63.77
55373;BME280;70018;47.838;16.490;2023-05-25T06:38:34;99849.75;;;11.38;63.70
55373;BME280;70018;47.838;16.490;2023-05-25T06:41:01;99857.38;;;11.55;63.78
55373;BME280;70018;47.838;16.490;2023-05-25T06:43:29;99860.03;;;11.34;61.13
55373;BME280;70018;47.838;16.490;2023-05-25T06:45:55;99863.84;;;11.08;61.99
55373;BME280;70018;47.838;16.490;2023-05-25T06:48:22;99859.13;;;11.12;62.23
55373;BME280;70018;47.838;16.490;2023-05-25T06:50:49;99854.41;;;11.23;62.72
55373;BME280;70018;47.838;16.490;2023-05-25T06:53:16;99861.28;;;11.47;62.07
55373;BME280;70018;47.838;16.490;2023-05-25T06:55:42;99867.31;;;11.52;62.45
55373;BME280;70018;47.838;16.490;2023-05-25T06:58:10;99872.38;;;11.43;60.76
55373;BME280;70018;47.838;16.490;2023-05-25T07:00:37;99859.25;;;11.37;61.44
55373;BME280;70018;47.838;16.490;2023-05-25T07:03:03;99864.94;;;11.54;61.28
55373;BME280;70018;47.838;16.490;2023-05-25T07:05:30;99858.66;;;11.79;60.99
55373;BME280;70018;47.838;16.490;2023-05-25T07:07:57;99873.06;;;12.12;60.94
55373;BME280;70018;47.838;16.490;2023-05-25T07:10:23;99853.16;;;12.10;60.60
55373;BME280;70018;47.838;16.490;2023-05-25T07:12:50;99856.75;;;12.04;60.07
55373;BME280;70018;47.838;16.490;2023-05-25T07:15:16;99851.56;;;12.13;60.52
55373;BME280;70018;47.838;16.490;2023-05-25T07:17:43;99858.03;;;12.52;60.62
55373;BME280;70018;47.838;16.490;2023-05-25T07:20:10;99856.00;;;12.49;58.92
55373;BME280;70018;47.838;16.490;2023-05-25T07:22:41;99861.59;;;12.56;59.43
55373;BME280;70018;47.838;16.490;2023-05-25T07:25:09;99856.81;;;12.78;58.55
55373;BME280;70018;47.838;16.490;2023-05-25T07:27:35;99863.19;;;12.78;58.90
55373;BME280;70018;47.838;16.490;2023-05-25T07:30:03;99858.81;;;12.56;58.14
55373;BME280;70018;47.838;16.490;2023-05-25T07:32:30;99861.56;;;12.49;57.94
55373;BME280;70018;47.838;16.490;2023-05-25T07:34:56;99856.00;;;12.46;57.51
55373;BME280;70018;47.838;16.490;2023-05-25T07:37:23;99858.00;;;12.42;57.36
55373;BME280;70018;47.838;16.490;2023-05-25T07:39:49;99865.59;;;12.69;57.42
55373;BME280;70018;47.838;16.490;2023-05-25T07:42:18;99861.22;;;12.72;56.72
55373;BME280;70018;47.838;16.490;2023-05-25T07:44:50;99860.00;;;12.83;57.04
55373;BME280;70018;47.838;16.490;2023-05-25T07:47:16;99862.00;;;12.79;56.80
55373;BME280;70018;47.838;16.490;2023-05-25T07:49:43;99869.94;;;12.98;56.30
55373;BME280;70018;47.838;16.490;2023-05-25T07:52:10;99862.78;;;12.76;55.85
55373;BME280;70018;47.838;16.490;2023-05-25T07:54:37;99863.94;;;13.14;56.20
55373;BME280;70018;47.838;16.490;2023-05-25T07:57:05;99866.72;;;13.25;55.03
55373;BME280;70018;47.838;16.490;2023-05-25T07:59:33;99866.63;;;13.42;55.34
55373;BME280;70018;47.838;16.490;2023-05-25T08:02:00;99857.91;;;13.30;56.09
55373;BME280;70018;47.838;16.490;2023-05-25T08:04:26;99867.75;;;13.73;55.79
55373;BME280;70018;47.838;16.490;2023-05-25T08:06:53;99862.22;;;13.66;56.14
55373;BME280;70018;47.838;16.490;2023-05-25T08:09:20;99869.41;;;13.67;54.76
55373;BME280;70018;47.838;16.490;2023-05-25T08:11:46;99871.81;;;13.40;54.13
55373;BME280;70018;47.838;16.490;2023-05-25T08:14:13;99865.09;;;13.31;52.31
55373;BME280;70018;47.838;16.490;2023-05-25T08:16:40;99862.69;;;13.33;53.94
55373;BME280;70018;47.838;16.490;2023-05-25T08:19:07;99859.09;;;13.32;53.56
55373;BME280;70018;47.838;16.490;2023-05-25T08:21:34;99865.72;;;13.77;53.52
55373;BME280;70018;47.838;16.490;2023-05-25T08:24:03;99865.31;;;13.82;53.61
55373;BME280;70018;47.838;16.490;2023-05-25T08:26:30;99872.34;;;14.11;53.34
55373;BME280;70018;47.838;16.490;2023-05-25T08:29:17;99867.56;;;14.12;53.36
55373;BME280;70018;47.838;16.490;2023-05-25T08:31:44;99856.41;;;14.05;53.42
55373;BME280;70018;47.838;16.490;2023-05-25T08:34:15;99871.81;;;14.30;53.34
55373;BME280;70018;47.838;16.490;2023-05-25T08:36:42;99859.63;;;14.00;53.07
55373;BME280;70018;47.838;16.490;2023-05-25T08:39:10;99857.66;;;14.00;53.26
55373;BME280;70018;47.838;16.490;2023-05-25T08:41:41;99863.22;;;14.00;52.88
55373;BME280;70018;47.838;16.490;2023-05-25T08:44:09;99858.41;;;14.08;52.66
55373;BME280;70018;47.838;16.490;2023-05-25T08:46:36;99857.06;;;14.30;53.06
55373;BME280;70018;47.838;16.490;2023-05-25T08:49:07;99855.69;;;14.56;52.79
55373;BME280;70018;47.838;16.490;2023-05-25T08:51:36;99862.44;;;14.62;53.09
55373;BME280;70018;47.838;16.490;2023-05-25T08:54:06;99851.00;;;14.90;52.71
55373;BME280;70018;47.838;16.490;2023-05-25T08:56:48;99865.94;;;14.73;50.46
55373;BME280;70018;47.838;16.490;2023-05-25T09:02:44;99871.13;;;14.16;51.82
55373;BME280;70018;47.838;16.490;2023-05-25T09:05:08;99859.19;;;14.08;52.48
55373;BME280;70018;47.838;16.490;2023-05-25T09:07:35;99860.69;;;14.23;52.11
55373;BME280;70018;47.838;16.490;2023-05-25T09:10:01;99863.81;;;14.33;52.42
55373;BME280;70018;47.838;16.490;2023-05-25T09:12:29;99866.13;;;14.52;51.50
55373;BME280;70018;47.838;16.490;2023-05-25T09:14:57;99871.78;;;14.41;51.91
55373;BME280;70018;47.838;16.490;2023-05-25T09:17:24;99867.91;;;14.21;51.96
55373;BME280;70018;47.838;16.490;2023-05-25T09:19:50;99866.66;;;14.29;51.78
55373;BME280;70018;47.838;16.490;2023-05-25T09:22:18;99868.41;;;14.64;51.92
55373;BME280;70018;47.838;16.490;2023-05-25T09:24:44;99856.59;;;14.46;51.55
55373;BME280;70018;47.838;16.490;2023-05-25T09:27:15;99867.69;;;14.53;51.17
55373;BME280;70018;47.838;16.490;2023-05-25T09:29:49;99856.53;;;14.53;51.39
55373;BME280;70018;47.838;16.490;2023-05-25T09:32:17;99868.19;;;14.41;51.32
55373;BME280;70018;47.838;16.490;2023-05-25T09:34:45;99868.66;;;14.83;51.30
55373;BME280;70018;47.838;16.490;2023-05-25T09:37:14;99857.94;;;14.75;50.59
55373;BME280;70018;47.838;16.490;2023-05-25T09:39:42;99873.34;;;14.93;50.85
55373;BME280;70018;47.838;16.490;2023-05-25T09:42:10;99861.50;;;15.20;50.75
55373;BME280;70018;47.838;16.490;2023-05-25T09:44:37;99871.00;;;15.29;50.63
55373;BME280;70018;47.838;16.490;2023-05-25T09:47:04;99873.16;;;15.52;50.26
55373;BME280;70018;47.838;16.490;2023-05-25T09:49:31;99872.53;;;15.71;50.52
55373;BME280;70018;47.838;16.490;2023-05-25T09:51:59;99869.91;;;15.87;50.38
55373;BME280;70018;47.838;16.490;2023-05-25T09:54:26;99866.97;;;15.98;50.47
55373;BME280;70018;47.838;16.490;2023-05-25T09:56:53;99876.22;;;16.25;50.05
55373;BME280;70018;47.838;16.490;2023-05-25T09:59:21;99873.38;;;15.98;49.55
55373;BME280;70018;47.838;16.490;2023-05-25T10:01:51;99860.63;;;15.94;49.24
55373;BME280;70018;47.838;16.490;2023-05-25T10:04:19;99870.25;;;15.93;49.89
55373;BME280;70018;47.838;16.490;2023-05-25T10:06:47;99868.56;;;15.99;49.54
55373;BME280;70018;47.838;16.490;2023-05-25T10:09:18;99864.53;;;15.70;49.28
55373;BME280;70018;47.838;16.490;2023-05-25T10:11:45;99868.50;;;16.06;49.36
55373;BME280;70018;47.838;16.490;2023-05-25T10:14:25;99868.75;;;15.85;49.20
55373;BME280;70018;47.838;16.490;2023-05-25T10:16:57;99868.66;;;15.62;49.19
55373;BME280;70018;47.838;16.490;2023-05-25T10:19:25;99860.09;;;15.72;49.62
55373;BME280;70018;47.838;16.490;2023-05-25T10:22:35;99868.97;;;15.67;48.16
55373;BME280;70018;47.838;16.490;2023-05-25T10:28:29;99856.50;;;16.02;49.09
55373;BME280;70018;47.838;16.490;2023-05-25T10:31:02;99857.09;;;16.20;48.85
55373;BME280;70018;47.838;16.490;2023-05-25T10:33:29;99855.19;;;16.40;48.67
55373;BME280;70018;47.838;16.490;2023-05-25T10:35:58;99853.56;;;16.39;48.50
55373;BME280;70018;47.838;16.490;2023-05-25T10:38:38;99855.53;;;16.42;48.60
55373;BME280;70018;47.838;16.490;2023-05-25T10:41:08;99863.63;;;16.63;47.60
55373;BME280;70018;47.838;16.490;2023-05-25T10:43:35;99849.69;;;16.33;48.29
55373;BME280;70018;47.838;16.490;2023-05-25T10:46:04;99845.25;;;16.59;48.43
55373;BME280;70018;47.838;16.490;2023-05-25T10:48:39;99848.97;;;16.52;48.34
55373;BME280;70018;47.838;16.490;2023-05-25T10:51:06;99848.94;;;16.56;48.49
55373;BME280;70018;47.838;16.490;2023-05-25T10:53:37;99851.06;;;16.48;48.19
55373;BME280;70018;47.838;16.490;2023-05-25T10:56:05;99845.44;;;16.48;48.64
55373;BME280;70018;47.838;16.490;2023-05-25T10:58:32;99848.69;;;16.20;48.13
55373;BME280;70018;47.838;16.490;2023-05-25T11:01:07;99841.59;;;16.12;47.83
55373;BME280;70018;47.838;16.490;2023-05-25T11:06:14;99839.22;;;16.10;48.57
55373;BME280;70018;47.838;16.490;2023-05-25T11:08:53;99828.44;;;16.09;48.41
55373;BME280;70018;47.838;16.490;2023-05-25T11:11:22;99834.06;;;16.09;48.95
55373;BME280;70018;47.838;16.490;2023-05-25T11:17:03;99827.00;;;16.51;48.15
55373;BME280;70018;47.838;16.490;2023-05-25T11:22:32;99822.91;;;16.55;47.06
55373;BME280;70018;47.838;16.490;2023-05-25T11:25:03;99812.16;;;16.27;48.33
55373;BME280;70018;47.838;16.490;2023-05-25T11:27:49;99804.06;;;16.33;48.16
55373;BME280;70018;47.838;16.490;2023-05-25T11:30:19;99802.06;;;16.56;48.14
55373;BME280;70018;47.838;16.490;2023-05-25T11:32:52;99802.91;;;16.53;47.78
55373;BME280;70018;47.838;16.490;2023-05-25T11:35:20;99805.59;;;16.60;47.80
55373;BME280;70018;47.838;16.490;2023-05-25T11:37:50;99799.94;;;16.41;47.88
55373;BME280;70018;47.838;16.490;2023-05-25T11:40:21;99804.97;;;16.49;47.92
55373;BME280;70018;47.838;16.490;2023-05-25T11:42:50;99805.69;;;16.30;47.63
55373;BME280;70018;47.838;16.490;2023-05-25T11:45:21;99805.25;;;16.32;48.03
55373;BME280;70018;47.838;16.490;2023-05-25T11:47:47;99783.25;;;16.34;48.31
55373;BME280;70018;47.838;16.490;2023-05-25T11:50:15;99793.28;;;16.31;48.14
55373;BME280;70018;47.838;16.490;2023-05-25T11:52:44;99791.44;;;16.21;48.30
55373;BME280;70018;47.838;16.490;2023-05-25T11:55:11;99804.84;;;16.33;48.28
55373;BME280;70018;47.838;16.490;2023-05-25T11:57:39;99789.31;;;16.29;48.85
55373;BME280;70018;47.838;16.490;2023-05-25T12:00:08;99782.94;;;16.51;47.88
55373;BME280;70018;47.838;16.490;2023-05-25T12:02:39;99768.06;;;16.54;48.02
55373;BME280;70018;47.838;16.490;2023-05-25T12:05:06;99769.53;;;16.86;48.18
55373;BME280;70018;47.838;16.490;2023-05-25T12:07:41;99781.06;;;17.50;47.69
55373;BME280;70018;47.838;16.490;2023-05-25T12:10:09;99792.28;;;17.50;46.98
55373;BME280;70018;47.838;16.490;2023-05-25T12:12:47;99761.56;;;17.04;47.31
55373;BME280;70018;47.838;16.490;2023-05-25T12:15:16;99777.03;;;17.12;47.88
55373;BME280;70018;47.838;16.490;2023-05-25T12:17:46;99779.28;;;17.20;47.58
55373;BME280;70018;47.838;16.490;2023-05-25T12:20:15;99778.41;;;17.23;48.00
55373;BME280;70018;47.838;16.490;2023-05-25T12:22:43;99772.53;;;17.54;47.40
55373;BME280;70018;47.838;16.490;2023-05-25T12:25:11;99776.97;;;17.35;47.32
55373;BME280;70018;47.838;16.490;2023-05-25T12:27:38;99775.75;;;17.36;47.50
55373;BME280;70018;47.838;16.490;2023-05-25T12:30:07;99774.22;;;17.12;46.77
55373;BME280;70018;47.838;16.490;2023-05-25T12:32:59;99780.09;;;16.74;47.53
55373;BME280;70018;47.838;16.490;2023-05-25T12:35:31;99776.31;;;16.84;48.14
55373;BME280;70018;47.838;16.490;2023-05-25T12:38:10;99767.03;;;16.91;47.84
55373;BME280;70018;47.838;16.490;2023-05-25T12:40:37;99766.81;;;17.02;47.85
55373;BME280;70018;47.838;16.490;2023-05-25T12:43:03;99770.34;;;17.06;47.60
55373;BME280;70018;47.838;16.490;2023-05-25T12:45:30;99763.13;;;17.05;47.71
55373;BME280;70018;47.838;16.490;2023-05-25T12:47:57;99761.59;;;17.59;47.42
55373;BME280;70018;47.838;16.490;2023-05-25T12:50:26;99761.22;;;17.41;47.28
55373;BME280;70018;47.838;16.490;2023-05-25T12:52:59;99747.41;;;17.11;47.20
55373;BME280;70018;47.838;16.490;2023-05-25T12:55:27;99762.06;;;16.99;47.73
55373;BME280;70018;47.838;16.490;2023-05-25T12:57:58;99746.81;;;17.00;47.58
55373;BME280;70018;47.838;16.490;2023-05-25T13:00:46;99747.69;;;16.73;47.31
55373;BME280;70018;47.838;16.490;2023-05-25T13:03:16;99741.72;;;16.71;47.71
55373;BME280;70018;47.838;16.490;2023-05-25T13:05:43;99745.13;;;16.82;47.49
55373;BME280;70018;47.838;16.490;2023-05-25T13:08:11;99739.50;;;16.82;47.37
55373;BME280;70018;47.838;16.490;2023-05-25T13:10:38;99732.44;;;17.17;47.35
55373;BME280;70018;47.838;16.490;2023-05-25T13:13:05;99736.34;;;16.80;47.28
55373;BME280;70018;47.838;16.490;2023-05-25T13:15:32;99740.25;;;16.87;47.85
55373;BME280;70018;47.838;16.490;2023-05-25T13:17:59;99723.81;;;16.89;47.30
55373;BME280;70018;47.838;16.490;2023-05-25T13:20:26;99723.56;;;16.99;47.41